sensor_id;sensor_type;location;lat;lon;timestamp;pressure;altitude;pressure_sealevel;temperature;humidity
34586;BME280;20816;50.950;11.108;2023-02-16T00:00:49;99326.84;;;-0.79;100.00
34586;BME280;20816;50.950;11.108;2023-02-16T00:03:19;99327.06;;;-0.73;100.00
34586;BME280;20816;50.950;11.108;2023-02-16T00:05:47;99321.97;;;-0.70;100.00
34586;BME280;20816;50.950;11.108;2023-02-16T00:08:20;99326.09;;;-0.50;100.00
34586;BME280;20816;50.950;11.108;2023-02-16T00:10:47;99317.59;;;-0.22;100.00
34586;BME280;20816;50.950;11.108;2023-02-16T00:13:34;99317.84;;;-0.14;100.00
34586;BME280;20816;50.950;11.108;2023-02-16T00:16:19;99321.13;;;-0.18;100.00
34586;BME280;20816;50.950;11.108;2023-02-16T00:18:47;99314.63;;;-0.07;100.00
34586;BME280;20816;50.950;11.108;2023-02-16T00:21:20;99322.78;;;-0.20;100.00
34586;BME280;20816;50.950;11.108;2023-02-16T00:23:47;99327.97;;;-0.20;100.00
34586;BME280;20816;50.950;11.108;2023-02-16T00:26:24;99324.41;;;-0.24;100.00
34586;BME280;20816;50.950;11.108;2023-02-16T00:28:56;99323.59;;;-0.23;100.00
34586;BME280;20816;50.950;11.108;2023-02-16T00:31:28;99329.13;;;-0.38;100.00
34586;BME280;20816;50.950;11.108;2023-02-16T00:33:58;99329.81;;;-0.42;100.00
34586;BME280;20816;50.950;11.108;2023-02-16T00:36:25;99321.91;;;-0.48;100.00
34586;BME280;20816;50.950;11.108;2023-02-16T00:38:52;99319.94;;;-0.55;100.00
34586;BME280;20816;50.950;11.108;2023-02-16T00:41:23;99330.03;;;-0.61;100.00
34586;BME280;20816;50.950;11.108;2023-02-16T00:44:15;99327.84;;;-0.74;100.00
34586;BME280;20816;50.950;11.108;2023-02-16T00:46:44;99318.66;;;-0.66;100.00
34586;BME280;20816;50.950;11.108;2023-02-16T00:49:18;99320.59;;;-0.61;100.00
34586;BME280;20816;50.950;11.108;2023-02-16T00:51:45;99328.38;;;-0.59;100.00
34586;BME280;20816;50.950;11.108;2023-02-16T00:54:14;99325.31;;;-0.49;100.00
34586;BME280;20816;50.950;11.108;2023-02-16T00:56:41;99327.97;;;-0.46;100.00
34586;BME280;20816;50.950;11.108;2023-02-16T00:59:14;99316.88;;;-0.43;100.00
34586;BME280;20816;50.950;11.108;2023-02-16T01:01:43;99321.72;;;-0.52;100.00
34586;BME280;20816;50.950;11.108;2023-02-16T01:04:17;99325.06;;;-0.57;100.00
34586;BME280;20816;50.950;11.108;2023-02-16T01:06:44;99331.78;;;-0.60;100.00
34586;BME280;20816;50.950;11.108;2023-02-16T01:09:29;99338.19;;;-0.74;100.00
34586;BME280;20816;50.950;11.108;2023-02-16T01:12:16;99338.00;;;-0.80;100.00
34586;BME280;20816;50.950;11.108;2023-02-16T01:14:46;99336.97;;;-0.84;100.00
34586;BME280;20816;50.950;11.108;2023-02-16T01:17:16;99347.47;;;-0.79;100.00
34586;BME280;20816;50.950;11.108;2023-02-16T01:19:42;99345.56;;;-0.85;100.00
34586;BME280;20816;50.950;11.108;2023-02-16T01:22:09;99344.59;;;-0.89;100.00
34586;BME280;20816;50.950;11.108;2023-02-16T01:24:35;99351.09;;;-0.98;100.00
34586;BME280;20816;50.950;11.108;2023-02-16T01:27:02;99340.94;;;-0.94;100.00
34586;BME280;20816;50.950;11.108;2023-02-16T01:29:29;99340.25;;;-0.90;100.00
34586;BME280;20816;50.950;11.108;2023-02-16T01:31:55;99338.53;;;-0.89;100.00
34586;BME280;20816;50.950;11.108;2023-02-16T01:34:22;99349.50;;;-0.95;100.00
34586;BME280;20816;50.950;11.108;2023-02-16T01:36:50;99349.50;;;-0.95;100.00
34586;BME280;20816;50.950;11.108;2023-02-16T01:39:27;99349.19;;;-1.04;100.00
34586;BME280;20816;50.950;11.108;2023-02-16T01:44:51;99334.38;;;-0.60;100.00
34586;BME280;20816;50.950;11.108;2023-02-16T01:47:37;99327.94;;;-0.47;100.00
34586;BME280;20816;50.950;11.108;2023-02-16T01:50:15;99323.22;;;-0.59;100.00
34586;BME280;20816;50.950;11.108;2023-02-16T01:52:46;99323.03;;;-0.65;100.00
34586;BME280;20816;50.950;11.108;2023-02-16T01:58:39;99313.31;;;-0.47;100.00
34586;BME280;20816;50.950;11.108;2023-02-16T02:04:00;99314.16;;;-0.48;100.00
34586;BME280;20816;50.950;11.108;2023-02-16T02:06:45;99323.25;;;-0.07;100.00
34586;BME280;20816;50.950;11.108;2023-02-16T02:09:18;99317.13;;;0.18;100.00
34586;BME280;20816;50.950;11.108;2023-02-16T02:11:54;99319.16;;;0.28;100.00
34586;BME280;20816;50.950;11.108;2023-02-16T02:14:26;99315.66;;;0.26;100.00
34586;BME280;20816;50.950;11.108;2023-02-16T02:16:57;99320.84;;;0.26;100.00
34586;BME280;20816;50.950;11.108;2023-02-16T02:19:25;99317.38;;;0.26;100.00
34586;BME280;20816;50.950;11.108;2023-02-16T02:25:22;99321.03;;;0.06;100.00
34586;BME280;20816;50.950;11.108;2023-02-16T02:28:13;99323.28;;;-0.05;100.00
34586;BME280;20816;50.950;11.108;2023-02-16T02:31:15;99317.63;;;-0.20;100.00
34586;BME280;20816;50.950;11.108;2023-02-16T02:36:36;99298.81;;;-0.16;100.00
34586;BME280;20816;50.950;11.108;2023-02-16T02:41:55;99296.25;;;0.12;100.00
34586;BME280;20816;50.950;11.108;2023-02-16T02:44:38;99291.84;;;0.08;100.00
34586;BME280;20816;50.950;11.108;2023-02-16T02:47:06;99295.06;;;0.01;100.00
34586;BME280;20816;50.950;11.108;2023-02-16T02:49:34;99299.25;;;-0.03;100.00
34586;BME280;20816;50.950;11.108;2023-02-16T02:52:01;99292.03;;;-0.13;100.00
34586;BME280;20816;50.950;11.108;2023-02-16T02:54:30;99291.78;;;-0.20;100.00
34586;BME280;20816;50.950;11.108;2023-02-16T03:00:12;99274.47;;;-0.24;100.00
34586;BME280;20816;50.950;11.108;2023-02-16T03:03:06;99281.88;;;-0.08;100.00
34586;BME280;20816;50.950;11.108;2023-02-16T03:05:36;99286.91;;;-0.11;100.00
34586;BME280;20816;50.950;11.108;2023-02-16T03:08:08;99289.63;;;-0.08;100.00
34586;BME280;20816;50.950;11.108;2023-02-16T03:11:15;99286.09;;;-0.10;100.00
34586;BME280;20816;50.950;11.108;2023-02-16T03:14:06;99281.53;;;-0.17;100.00
34586;BME280;20816;50.950;11.108;2023-02-16T03:16:48;99284.78;;;-0.24;100.00
34586;BME280;20816;50.950;11.108;2023-02-16T03:19:17;99287.25;;;-0.28;100.00
34586;BME280;20816;50.950;11.108;2023-02-16T03:22:03;99294.13;;;-0.28;100.00
34586;BME280;20816;50.950;11.108;2023-02-16T03:24:48;99289.63;;;-0.34;100.00
34586;BME280;20816;50.950;11.108;2023-02-16T03:27:38;99292.75;;;-0.44;100.00
34586;BME280;20816;50.950;11.108;2023-02-16T03:30:25;99285.63;;;-0.51;100.00
34586;BME280;20816;50.950;11.108;2023-02-16T03:32:53;99286.31;;;-0.57;100.00
34586;BME280;20816;50.950;11.108;2023-02-16T03:35:20;99294.19;;;-0.52;100.00
34586;BME280;20816;50.950;11.108;2023-02-16T03:37:51;99293.13;;;-0.59;100.00
34586;BME280;20816;50.950;11.108;2023-02-16T03:40:18;99294.78;;;-0.61;100.00
34586;BME280;20816;50.950;11.108;2023-02-16T03:42:56;99295.56;;;-0.63;100.00
34586;BME280;20816;50.950;11.108;2023-02-16T03:45:28;99303.81;;;-0.73;100.00
34586;BME280;20816;50.950;11.108;2023-02-16T03:47:57;99296.88;;;-0.74;100.00
34586;BME280;20816;50.950;11.108;2023-02-16T03:50:23;99293.28;;;-0.54;100.00
34586;BME280;20816;50.950;11.108;2023-02-16T03:52:53;99297.00;;;-0.46;100.00
34586;BME280;20816;50.950;11.108;2023-02-16T03:55:38;99300.19;;;-0.53;100.00
34586;BME280;20816;50.950;11.108;2023-02-16T03:58:06;99294.94;;;-0.56;100.00
34586;BME280;20816;50.950;11.108;2023-02-16T04:00:34;99294.13;;;-0.55;100.00
34586;BME280;20816;50.950;11.108;2023-02-16T04:03:02;99299.28;;;-0.55;100.00
34586;BME280;20816;50.950;11.108;2023-02-16T04:05:32;99294.13;;;-0.55;100.00
34586;BME280;20816;50.950;11.108;2023-02-16T04:07:59;99284.88;;;-0.48;100.00
34586;BME280;20816;50.950;11.108;2023-02-16T04:10:26;99284.63;;;-0.56;100.00
34586;BME280;20816;50.950;11.108;2023-02-16T04:12:53;99283.56;;;-0.36;100.00
34586;BME280;20816;50.950;11.108;2023-02-16T04:15:24;99285.44;;;0.54;100.00
34586;BME280;20816;50.950;11.108;2023-02-16T04:17:52;99258.63;;;1.13;100.00
34586;BME280;20816;50.950;11.108;2023-02-16T04:20:21;99272.50;;;1.49;100.00
34586;BME280;20816;50.950;11.108;2023-02-16T04:22:48;99259.13;;;1.68;100.00
34586;BME280;20816;50.950;11.108;2023-02-16T04:25:15;99263.09;;;1.88;100.00
34586;BME280;20816;50.950;11.108;2023-02-16T04:27:43;99259.91;;;2.02;100.00
34586;BME280;20816;50.950;11.108;2023-02-16T04:30:12;99245.94;;;2.34;100.00
34586;BME280;20816;50.950;11.108;2023-02-16T04:32:39;99248.66;;;2.40;100.00
34586;BME280;20816;50.950;11.108;2023-02-16T04:35:06;99239.13;;;2.38;100.00
34586;BME280;20816;50.950;11.108;2023-02-16T04:37:33;99241.97;;;2.51;100.00
34586;BME280;20816;50.950;11.108;2023-02-16T04:40:00;99229.94;;;2.53;100.00
34586;BME280;20816;50.950;11.108;2023-02-16T04:42:27;99235.00;;;2.47;100.00
34586;BME280;20816;50.950;11.108;2023-02-16T04:44:55;99232.69;;;2.61;100.00
34586;BME280;20816;50.950;11.108;2023-02-16T04:47:22;99237.97;;;2.67;100.00
34586;BME280;20816;50.950;11.108;2023-02-16T04:49:52;99246.88;;;2.80;100.00
34586;BME280;20816;50.950;11.108;2023-02-16T04:52:19;99250.56;;;2.93;100.00
34586;BME280;20816;50.950;11.108;2023-02-16T04:54:46;99256.56;;;2.87;100.00
34586;BME280;20816;50.950;11.108;2023-02-16T04:57:14;99251.94;;;2.74;100.00
34586;BME280;20816;50.950;11.108;2023-02-16T04:59:41;99256.25;;;2.72;100.00
34586;BME280;20816;50.950;11.108;2023-02-16T05:02:07;99254.88;;;2.47;100.00
34586;BME280;20816;50.950;11.108;2023-02-16T05:04:34;99262.16;;;2.24;100.00
34586;BME280;20816;50.950;11.108;2023-02-16T05:07:01;99260.00;;;2.05;100.00
34586;BME280;20816;50.950;11.108;2023-02-16T05:09:27;99251.84;;;1.88;100.00
34586;BME280;20816;50.950;11.108;2023-02-16T05:11:54;99261.91;;;1.76;100.00
34586;BME280;20816;50.950;11.108;2023-02-16T05:14:39;99253.50;;;1.50;100.00
34586;BME280;20816;50.950;11.108;2023-02-16T05:17:21;99255.72;;;1.34;100.00
34586;BME280;20816;50.950;11.108;2023-02-16T05:19:50;99259.59;;;1.17;100.00
34586;BME280;20816;50.950;11.108;2023-02-16T05:22:18;99266.09;;;1.03;100.00
34586;BME280;20816;50.950;11.108;2023-02-16T05:24:45;99267.38;;;0.86;100.00
34586;BME280;20816;50.950;11.108;2023-02-16T05:27:15;99269.44;;;0.67;100.00
34586;BME280;20816;50.950;11.108;2023-02-16T05:29:45;99265.00;;;0.63;100.00
34586;BME280;20816;50.950;11.108;2023-02-16T05:32:12;99260.19;;;0.75;100.00
34586;BME280;20816;50.950;11.108;2023-02-16T05:34:38;99258.34;;;0.71;100.00
34586;BME280;20816;50.950;11.108;2023-02-16T05:37:05;99257.19;;;0.60;100.00
34586;BME280;20816;50.950;11.108;2023-02-16T05:39:34;99260.63;;;0.61;100.00
34586;BME280;20816;50.950;11.108;2023-02-16T05:42:00;99254.78;;;0.66;100.00
34586;BME280;20816;50.950;11.108;2023-02-16T05:44:29;99256.69;;;0.73;100.00
34586;BME280;20816;50.950;11.108;2023-02-16T05:46:56;99262.28;;;0.57;100.00
34586;BME280;20816;50.950;11.108;2023-02-16T05:49:22;99267.75;;;0.68;100.00
34586;BME280;20816;50.950;11.108;2023-02-16T05:51:49;99261.94;;;0.46;100.00
34586;BME280;20816;50.950;11.108;2023-02-16T05:54:16;99275.50;;;0.09;100.00
34586;BME280;20816;50.950;11.108;2023-02-16T05:56:53;99281.09;;;-0.33;100.00
34586;BME280;20816;50.950;11.108;2023-02-16T05:59:20;99286.44;;;-0.26;100.00
34586;BME280;20816;50.950;11.108;2023-02-16T06:01:46;99296.22;;;-0.43;100.00
34586;BME280;20816;50.950;11.108;2023-02-16T06:04:18;99289.03;;;-0.52;100.00
34586;BME280;20816;50.950;11.108;2023-02-16T06:06:54;99290.63;;;-0.57;100.00
34586;BME280;20816;50.950;11.108;2023-02-16T06:09:21;99287.94;;;-0.59;100.00
34586;BME280;20816;50.950;11.108;2023-02-16T06:11:48;99293.25;;;-0.55;100.00
34586;BME280;20816;50.950;11.108;2023-02-16T06:14:17;99294.50;;;-0.43;100.00
34586;BME280;20816;50.950;11.108;2023-02-16T06:16:47;99285.53;;;-0.54;100.00
34586;BME280;20816;50.950;11.108;2023-02-16T06:19:16;99291.31;;;-0.61;100.00
34586;BME280;20816;50.950;11.108;2023-02-16T06:21:43;99297.22;;;-0.65;100.00
34586;BME280;20816;50.950;11.108;2023-02-16T06:24:11;99298.44;;;-0.54;100.00
34586;BME280;20816;50.950;11.108;2023-02-16T06:26:38;99287.38;;;-0.50;100.00
34586;BME280;20816;50.950;11.108;2023-02-16T06:29:12;99284.66;;;-0.54;100.00
34586;BME280;20816;50.950;11.108;2023-02-16T06:31:38;99282.13;;;-0.53;100.00
34586;BME280;20816;50.950;11.108;2023-02-16T06:34:05;99290.69;;;-0.54;100.00
34586;BME280;20816;50.950;11.108;2023-02-16T06:36:32;99280.00;;;-0.39;100.00
34586;BME280;20816;50.950;11.108;2023-02-16T06:38:59;99276.28;;;-0.47;100.00
34586;BME280;20816;50.950;11.108;2023-02-16T06:41:25;99279.13;;;-0.40;100.00
34586;BME280;20816;50.950;11.108;2023-02-16T06:44:10;99271.22;;;-0.44;100.00
34586;BME280;20816;50.950;11.108;2023-02-16T06:46:41;99275.50;;;-0.45;100.00
34586;BME280;20816;50.950;11.108;2023-02-16T06:49:11;99279.50;;;-0.54;100.00
34586;BME280;20816;50.950;11.108;2023-02-16T06:51:38;99277.00;;;-0.51;100.00
34586;BME280;20816;50.950;11.108;2023-02-16T06:54:05;99283.56;;;-0.61;100.00
34586;BME280;20816;50.950;11.108;2023-02-16T06:56:32;99275.53;;;-0.70;100.00
34586;BME280;20816;50.950;11.108;2023-02-16T06:59:02;99276.44;;;-0.68;100.00
34586;BME280;20816;50.950;11.108;2023-02-16T07:01:37;99276.41;;;-0.70;100.00
34586;BME280;20816;50.950;11.108;2023-02-16T07:04:04;99269.44;;;-0.72;100.00
34586;BME280;20816;50.950;11.108;2023-02-16T07:06:31;99255.81;;;-0.68;100.00
34586;BME280;20816;50.950;11.108;2023-02-16T07:08:58;99251.34;;;-0.47;100.00
34586;BME280;20816;50.950;11.108;2023-02-16T07:11:25;99243.25;;;-0.31;100.00
34586;BME280;20816;50.950;11.108;2023-02-16T07:13:52;99247.78;;;-0.23;100.00
34586;BME280;20816;50.950;11.108;2023-02-16T07:16:19;99244.63;;;-0.15;100.00
34586;BME280;20816;50.950;11.108;2023-02-16T07:18:46;99243.81;;;-0.12;100.00
34586;BME280;20816;50.950;11.108;2023-02-16T07:21:14;99249.84;;;-0.13;100.00
34586;BME280;20816;50.950;11.108;2023-02-16T07:23:40;99250.75;;;-0.11;100.00
34586;BME280;20816;50.950;11.108;2023-02-16T07:26:08;99248.28;;;-0.08;100.00
34586;BME280;20816;50.950;11.108;2023-02-16T07:28:37;99248.13;;;-0.13;100.00
34586;BME280;20816;50.950;11.108;2023-02-16T07:31:08;99261.38;;;-0.29;100.00
34586;BME280;20816;50.950;11.108;2023-02-16T07:33:36;99253.00;;;-0.22;100.00
34586;BME280;20816;50.950;11.108;2023-02-16T07:36:04;99254.66;;;-0.24;100.00
34586;BME280;20816;50.950;11.108;2023-02-16T07:38:32;99267.63;;;-0.22;100.00
34586;BME280;20816;50.950;11.108;2023-02-16T07:40:59;99268.03;;;-0.09;100.00
34586;BME280;20816;50.950;11.108;2023-02-16T07:43:25;99254.19;;;-0.11;100.00
34586;BME280;20816;50.950;11.108;2023-02-16T07:45:53;99266.63;;;0.01;100.00
34586;BME280;20816;50.950;11.108;2023-02-16T07:48:20;99275.78;;;0.18;100.00
34586;BME280;20816;50.950;11.108;2023-02-16T07:50:47;99283.06;;;0.32;100.00
34586;BME280;20816;50.950;11.108;2023-02-16T07:53:13;99285.38;;;0.51;100.00
34586;BME280;20816;50.950;11.108;2023-02-16T07:55:41;99283.50;;;0.47;100.00
34586;BME280;20816;50.950;11.108;2023-02-16T07:58:09;99292.53;;;0.61;100.00
34586;BME280;20816;50.950;11.108;2023-02-16T08:00:37;99297.00;;;0.65;100.00
34586;BME280;20816;50.950;11.108;2023-02-16T08:03:03;99298.13;;;0.75;100.00
34586;BME280;20816;50.950;11.108;2023-02-16T08:05:32;99300.16;;;0.87;100.00
34586;BME280;20816;50.950;11.108;2023-02-16T08:07:59;99307.53;;;1.03;100.00
34586;BME280;20816;50.950;11.108;2023-02-16T08:10:26;99306.25;;;1.20;100.00
34586;BME280;20816;50.950;11.108;2023-02-16T08:12:52;99292.19;;;1.44;100.00
34586;BME280;20816;50.950;11.108;2023-02-16T08:15:23;99295.25;;;1.62;100.00
34586;BME280;20816;50.950;11.108;2023-02-16T08:17:50;99299.28;;;1.85;100.00
34586;BME280;20816;50.950;11.108;2023-02-16T08:20:17;99295.66;;;2.15;100.00
34586;BME280;20816;50.950;11.108;2023-02-16T08:22:43;99303.34;;;2.49;100.00
34586;BME280;20816;50.950;11.108;2023-02-16T08:25:10;99296.78;;;2.67;100.00
34586;BME280;20816;50.950;11.108;2023-02-16T08:27:37;99301.88;;;2.61;100.00
34586;BME280;20816;50.950;11.108;2023-02-16T08:30:10;99304.13;;;2.86;100.00
34586;BME280;20816;50.950;11.108;2023-02-16T08:32:39;99295.81;;;3.04;100.00
34586;BME280;20816;50.950;11.108;2023-02-16T08:35:09;99303.63;;;3.05;100.00
34586;BME280;20816;50.950;11.108;2023-02-16T08:37:38;99304.09;;;3.30;100.00
34586;BME280;20816;50.950;11.108;2023-02-16T08:40:08;99304.75;;;3.67;99.94
34586;BME280;20816;50.950;11.108;2023-02-16T08:42:36;99309.63;;;4.00;98.58
34586;BME280;20816;50.950;11.108;2023-02-16T08:45:04;99305.06;;;4.42;98.94
34586;BME280;20816;50.950;11.108;2023-02-16T08:47:31;99309.97;;;4.86;99.65
34586;BME280;20816;50.950;11.108;2023-02-16T08:49:59;99306.16;;;5.31;98.44
34586;BME280;20816;50.950;11.108;2023-02-16T08:52:26;99296.00;;;5.61;92.83
34586;BME280;20816;50.950;11.108;2023-02-16T08:54:54;99301.47;;;5.87;92.15
34586;BME280;20816;50.950;11.108;2023-02-16T08:57:23;99292.84;;;5.93;90.86
34586;BME280;20816;50.950;11.108;2023-02-16T08:59:49;99278.22;;;6.18;90.81
34586;BME280;20816;50.950;11.108;2023-02-16T09:02:36;99289.75;;;6.51;89.24
34586;BME280;20816;50.950;11.108;2023-02-16T09:05:03;99273.34;;;6.82;86.39
34586;BME280;20816;50.950;11.108;2023-02-16T09:07:29;99278.72;;;7.19;86.74
34586;BME280;20816;50.950;11.108;2023-02-16T09:10:01;99279.66;;;7.44;87.41
34586;BME280;20816;50.950;11.108;2023-02-16T09:12:28;99271.84;;;7.74;84.95
34586;BME280;20816;50.950;11.108;2023-02-16T09:14:56;99270.06;;;7.95;83.15
34586;BME280;20816;50.950;11.108;2023-02-16T09:17:23;99272.72;;;7.99;82.18
34586;BME280;20816;50.950;11.108;2023-02-16T09:19:49;99273.56;;;8.01;81.41
34586;BME280;20816;50.950;11.108;2023-02-16T09:22:16;99268.28;;;8.27;81.78
34586;BME280;20816;50.950;11.108;2023-02-16T09:24:43;99270.00;;;8.57;80.79
34586;BME280;20816;50.950;11.108;2023-02-16T09:27:09;99253.41;;;8.54;79.63
34586;BME280;20816;50.950;11.108;2023-02-16T09:29:36;99258.63;;;8.63;79.94
34586;BME280;20816;50.950;11.108;2023-02-16T09:32:05;99263.03;;;8.50;79.26
34586;BME280;20816;50.950;11.108;2023-02-16T09:34:35;99259.44;;;8.79;80.39
34586;BME280;20816;50.950;11.108;2023-02-16T09:37:02;99263.69;;;9.03;78.28
34586;BME280;20816;50.950;11.108;2023-02-16T09:39:28;99260.97;;;9.22;77.27
34586;BME280;20816;50.950;11.108;2023-02-16T09:42:05;99270.66;;;9.08;78.37
34586;BME280;20816;50.950;11.108;2023-02-16T09:47:25;99265.53;;;8.90;79.12
34586;BME280;20816;50.950;11.108;2023-02-16T09:49:56;99268.00;;;9.17;78.06
34586;BME280;20816;50.950;11.108;2023-02-16T09:52:36;99267.84;;;9.45;77.29
34586;BME280;20816;50.950;11.108;2023-02-16T09:55:14;99261.91;;;9.14;77.79
34586;BME280;20816;50.950;11.108;2023-02-16T10:00:42;99262.00;;;8.97;78.84
34586;BME280;20816;50.950;11.108;2023-02-16T10:08:54;99259.75;;;9.74;77.25
34586;BME280;20816;50.950;11.108;2023-02-16T10:11:47;99259.66;;;9.84;77.36
34586;BME280;20816;50.950;11.108;2023-02-16T10:18:02;99260.25;;;10.19;75.53
34586;BME280;20816;50.950;11.108;2023-02-16T10:20:26;99256.53;;;10.43;74.92
34586;BME280;20816;50.950;11.108;2023-02-16T10:25:54;99242.59;;;11.07;72.61
34586;BME280;20816;50.950;11.108;2023-02-16T10:28:41;99249.53;;;11.12;72.40
34586;BME280;20816;50.950;11.108;2023-02-16T10:31:18;99239.13;;;11.03;73.26
34586;BME280;20816;50.950;11.108;2023-02-16T10:36:37;99241.53;;;11.82;70.68
34586;BME280;20816;50.950;11.108;2023-02-16T10:41:46;99241.13;;;12.03;69.86
34586;BME280;20816;50.950;11.108;2023-02-16T10:44:21;99241.63;;;12.25;68.91
34586;BME280;20816;50.950;11.108;2023-02-16T10:47:13;99240.75;;;12.71;67.78
34586;BME280;20816;50.950;11.108;2023-02-16T10:49:43;99241.25;;;12.46;67.88
34586;BME280;20816;50.950;11.108;2023-02-16T10:52:10;99228.34;;;12.31;68.63
34586;BME280;20816;50.950;11.108;2023-02-16T10:54:37;99231.00;;;12.31;68.72
34586;BME280;20816;50.950;11.108;2023-02-16T10:57:22;99225.19;;;12.11;69.91
34586;BME280;20816;50.950;11.108;2023-02-16T10:59:58;99230.38;;;12.61;68.56
34586;BME280;20816;50.950;11.108;2023-02-16T11:02:29;99217.91;;;12.70;68.32
34586;BME280;20816;50.950;11.108;2023-02-16T11:05:00;99225.06;;;12.65;68.29
34586;BME280;20816;50.950;11.108;2023-02-16T11:07:33;99221.00;;;12.90;67.82
34586;BME280;20816;50.950;11.108;2023-02-16T11:10:20;99211.66;;;13.15;65.99
34586;BME280;20816;50.950;11.108;2023-02-16T11:12:53;99210.56;;;12.84;66.59
34586;BME280;20816;50.950;11.108;2023-02-16T11:15:23;99214.31;;;12.74;68.36
34586;BME280;20816;50.950;11.108;2023-02-16T11:23:33;99198.75;;;13.03;66.46
34586;BME280;20816;50.950;11.108;2023-02-16T11:28:40;99213.03;;;13.33;66.13
34586;BME280;20816;50.950;11.108;2023-02-16T11:33:53;99204.25;;;13.70;65.40
34586;BME280;20816;50.950;11.108;2023-02-16T11:41:50;99202.44;;;13.35;62.94
34586;BME280;20816;50.950;11.108;2023-02-16T11:44:33;99198.97;;;13.33;62.80
34586;BME280;20816;50.950;11.108;2023-02-16T11:47:28;99196.09;;;13.42;63.10
34586;BME280;20816;50.950;11.108;2023-02-16T11:52:38;99192.63;;;13.75;60.08
34586;BME280;20816;50.950;11.108;2023-02-16T11:55:18;99187.44;;;13.37;61.34
34586;BME280;20816;50.950;11.108;2023-02-16T11:57:45;99185.34;;;13.12;61.03
34586;BME280;20816;50.950;11.108;2023-02-16T12:00:18;99184.03;;;13.32;59.72
34586;BME280;20816;50.950;11.108;2023-02-16T12:03:02;99185.38;;;13.09;59.21
34586;BME280;20816;50.950;11.108;2023-02-16T12:05:51;99186.97;;;13.16;59.62
34586;BME280;20816;50.950;11.108;2023-02-16T12:11:24;99180.25;;;13.03;59.70
34586;BME280;20816;50.950;11.108;2023-02-16T12:14:18;99178.44;;;13.05;60.20
34586;BME280;20816;50.950;11.108;2023-02-16T12:19:45;99192.38;;;12.27;61.14
34586;BME280;20816;50.950;11.108;2023-02-16T12:22:20;99187.75;;;11.93;60.46
34586;BME280;20816;50.950;11.108;2023-02-16T12:24:54;99194.53;;;12.06;60.78
34586;BME280;20816;50.950;11.108;2023-02-16T12:27:30;99180.94;;;12.28;60.66
34586;BME280;20816;50.950;11.108;2023-02-16T12:30:07;99178.19;;;12.34;59.95
34586;BME280;20816;50.950;11.108;2023-02-16T12:32:43;99173.22;;;12.19;60.20
34586;BME280;20816;50.950;11.108;2023-02-16T12:41:19;99159.81;;;12.73;59.70
34586;BME280;20816;50.950;11.108;2023-02-16T12:43:59;99154.72;;;12.65;59.80
34586;BME280;20816;50.950;11.108;2023-02-16T12:46:35;99154.00;;;12.14;60.94
34586;BME280;20816;50.950;11.108;2023-02-16T12:49:20;99158.44;;;11.61;62.50
34586;BME280;20816;50.950;11.108;2023-02-16T12:51:53;99148.06;;;11.51;59.93
34586;BME280;20816;50.950;11.108;2023-02-16T12:54:32;99154.06;;;11.60;59.99
34586;BME280;20816;50.950;11.108;2023-02-16T12:57:15;99141.75;;;11.60;58.32
34586;BME280;20816;50.950;11.108;2023-02-16T12:59:48;99149.53;;;11.68;58.61
34586;BME280;20816;50.950;11.108;2023-02-16T13:02:26;99136.50;;;11.60;57.14
34586;BME280;20816;50.950;11.108;2023-02-16T13:08:01;99138.03;;;11.72;56.49
34586;BME280;20816;50.950;11.108;2023-02-16T13:13:17;99133.91;;;11.59;56.69
34586;BME280;20816;50.950;11.108;2023-02-16T13:15:50;99141.47;;;11.77;56.53
34586;BME280;20816;50.950;11.108;2023-02-16T13:18:21;99138.72;;;11.85;56.42
34586;BME280;20816;50.950;11.108;2023-02-16T13:21:01;99134.66;;;11.64;57.50
34586;BME280;20816;50.950;11.108;2023-02-16T13:26:35;99138.50;;;11.46;58.50
34586;BME280;20816;50.950;11.108;2023-02-16T13:29:20;99135.47;;;11.69;58.97
34586;BME280;20816;50.950;11.108;2023-02-16T13:32:12;99137.16;;;11.71;57.18
34586;BME280;20816;50.950;11.108;2023-02-16T13:41:27;99145.34;;;11.58;58.77
34586;BME280;20816;50.950;11.108;2023-02-16T13:44:03;99145.50;;;11.48;58.35
34586;BME280;20816;50.950;11.108;2023-02-16T13:46:38;99142.88;;;11.45;59.11
34586;BME280;20816;50.950;11.108;2023-02-16T13:52:03;99151.69;;;11.44;59.62
34586;BME280;20816;50.950;11.108;2023-02-16T13:54:35;99146.75;;;11.23;60.82
34586;BME280;20816;50.950;11.108;2023-02-16T13:57:03;99154.63;;;11.26;61.11
34586;BME280;20816;50.950;11.108;2023-02-16T13:59:47;99149.28;;;11.29;61.24
34586;BME280;20816;50.950;11.108;2023-02-16T14:02:50;99161.16;;;10.98;63.13
34586;BME280;20816;50.950;11.108;2023-02-16T14:05:23;99151.88;;;10.72;64.41
34586;BME280;20816;50.950;11.108;2023-02-16T14:08:11;99153.72;;;10.65;65.18
34586;BME280;20816;50.950;11.108;2023-02-16T14:13:45;99161.69;;;10.61;66.42
34586;BME280;20816;50.950;11.108;2023-02-16T14:18:47;99167.13;;;10.46;67.37
34586;BME280;20816;50.950;11.108;2023-02-16T14:21:30;99170.66;;;10.42;67.39
34586;BME280;20816;50.950;11.108;2023-02-16T14:23:59;99176.16;;;10.23;67.75
34586;BME280;20816;50.950;11.108;2023-02-16T14:26:29;99170.91;;;10.23;67.86
34586;BME280;20816;50.950;11.108;2023-02-16T14:29:01;99167.56;;;10.06;68.58
34586;BME280;20816;50.950;11.108;2023-02-16T14:31:42;99171.22;;;9.90;68.98
34586;BME280;20816;50.950;11.108;2023-02-16T14:34:26;99158.84;;;10.01;69.20
34586;BME280;20816;50.950;11.108;2023-02-16T14:39:48;99147.91;;;9.56;71.72
34586;BME280;20816;50.950;11.108;2023-02-16T14:42:33;99157.44;;;9.69;72.02
34586;BME280;20816;50.950;11.108;2023-02-16T14:45:22;99153.94;;;9.67;72.32
34586;BME280;20816;50.950;11.108;2023-02-16T14:54:07;99148.66;;;9.70;73.72
34586;BME280;20816;50.950;11.108;2023-02-16T14:56:53;99135.53;;;9.70;74.56
34586;BME280;20816;50.950;11.108;2023-02-16T14:59:33;99133.91;;;9.57;75.17
34586;BME280;20816;50.950;11.108;2023-02-16T15:02:29;99134.75;;;9.62;75.28